createdAt,value
2022-12-11T00:04:14.582Z,84.70
2022-12-11T00:09:15.364Z,85.30
2022-12-11T00:14:17.534Z,85.53
2022-12-11T00:19:18.445Z,85.01
2022-12-11T00:24:20.282Z,84.79
2022-12-11T00:29:22.434Z,84.99
2022-12-11T00:34:24.391Z,84.99
2022-12-11T00:39:25.207Z,85.01
2022-12-11T00:44:27.347Z,85.08
2022-12-11T00:49:28.223Z,85.73
2022-12-11T00:54:29.028Z,85.41
2022-12-11T00:59:31.171Z,85.25
2022-12-11T01:04:32.002Z,85.03
2022-12-11T01:09:52.425Z,84.66
2022-12-11T01:14:54.622Z,84.96
2022-12-11T01:19:56.181Z,84.46
2022-12-11T01:24:56.996Z,84.08
2022-12-11T01:29:59.206Z,84.49
2022-12-11T01:35:00.003Z,84.37
2022-12-11T01:40:01.591Z,84.16
2022-12-11T01:45:29.223Z,83.88
2022-12-11T01:50:32.615Z,84.29
2022-12-11T01:55:34.328Z,84.28
2022-12-11T02:00:36.542Z,84.06
2022-12-11T02:05:38.023Z,84.23
2022-12-11T02:10:55.499Z,83.80
2022-12-11T02:16:06.439Z,83.79
2022-12-11T02:21:14.324Z,83.87
2022-12-11T02:26:33.087Z,83.32
2022-12-11T02:31:39.766Z,83.85
2022-12-11T02:36:44.940Z,83.54
2022-12-11T02:41:49.860Z,83.65
2022-12-11T02:46:53.421Z,83.51
2022-12-11T02:51:55.751Z,82.68
2022-12-11T02:57:04.768Z,82.22
2022-12-11T03:02:07.622Z,81.24
2022-12-11T03:07:13.117Z,81.89
2022-12-11T03:12:19.225Z,81.80
2022-12-11T03:17:23.918Z,81.71
2022-12-11T03:22:33.713Z,81.92
2022-12-11T03:27:39.401Z,81.62
2022-12-11T03:32:47.643Z,81.46
2022-12-11T03:37:52.292Z,81.61
2022-12-11T03:42:57.571Z,81.46
2022-12-11T03:48:03.566Z,82.35
2022-12-11T03:53:05.910Z,81.67
2022-12-11T03:58:06.854Z,81.21
2022-12-11T04:03:15.894Z,81.75
2022-12-11T04:08:17.314Z,81.51
2022-12-11T04:13:18.117Z,80.98
2022-12-11T04:18:37.895Z,81.44
2022-12-11T04:23:56.602Z,80.13
2022-12-11T04:28:57.354Z,80.03
2022-12-11T04:33:59.579Z,80.26
2022-12-11T04:39:00.453Z,80.71
2022-12-11T04:44:01.400Z,80.47
2022-12-11T04:49:03.604Z,79.54
2022-12-11T04:54:04.527Z,77.92
2022-12-11T04:59:05.335Z,77.96
2022-12-11T05:04:07.859Z,77.49
2022-12-11T05:09:12.414Z,78.34
2022-12-11T05:14:13.500Z,78.54
2022-12-11T05:19:15.706Z,79.37
2022-12-11T05:24:16.491Z,79.89
2022-12-11T05:29:17.271Z,80.86
2022-12-11T05:34:19.519Z,82.56
2022-12-11T05:39:20.702Z,83.44
2022-12-11T05:44:21.529Z,83.07
2022-12-11T05:49:29.120Z,84.50
2022-12-11T05:54:31.714Z,84.65
2022-12-11T05:59:32.548Z,85.18
2022-12-11T06:04:34.901Z,85.01
2022-12-11T06:09:35.762Z,84.17
2022-12-11T06:14:36.531Z,84.20
2022-12-11T06:19:38.841Z,84.71
2022-12-11T06:24:39.764Z,84.60
2022-12-11T06:29:40.891Z,84.94
2022-12-11T06:34:44.527Z,85.44
2022-12-11T06:39:45.496Z,85.22
2022-12-11T06:44:46.597Z,85.50
2022-12-11T06:49:48.750Z,85.53
2022-12-11T06:54:49.846Z,85.54
2022-12-11T06:59:50.871Z,85.25
2022-12-11T07:04:55.274Z,85.19
2022-12-11T07:09:56.304Z,85.03
2022-12-11T07:14:57.141Z,84.06
2022-12-11T07:19:59.482Z,82.55
2022-12-11T07:25:00.448Z,82.70
2022-12-11T07:30:01.364Z,83.31
2022-12-11T07:35:03.790Z,83.62
2022-12-11T07:40:05.055Z,82.56
2022-12-11T07:45:07.208Z,82.53
2022-12-11T07:50:10.230Z,82.56
2022-12-11T07:55:11.498Z,82.04
2022-12-11T08:00:13.162Z,82.34
2022-12-11T08:05:15.298Z,81.72
2022-12-11T08:10:16.127Z,82.12
2022-12-11T08:15:16.995Z,82.03
2022-12-11T08:20:19.204Z,81.62
2022-12-11T08:25:20.014Z,81.47
2022-12-11T08:30:20.828Z,81.40
2022-12-11T08:35:22.943Z,81.63
2022-12-11T08:40:23.773Z,80.54
2022-12-11T08:45:24.632Z,79.71
2022-12-11T08:50:26.953Z,80.56
2022-12-11T08:55:27.777Z,80.09
2022-12-11T09:00:28.720Z,85.24
2022-12-11T09:05:31.247Z,78.90
2022-12-11T09:10:32.029Z,79.34
2022-12-11T09:15:32.882Z,79.76
2022-12-11T09:20:35.273Z,79.77
2022-12-11T09:25:36.092Z,78.65
2022-12-11T09:30:36.967Z,78.59
2022-12-11T09:35:39.425Z,78.42
2022-12-11T09:40:43.917Z,82.95
2022-12-11T09:45:44.765Z,77.49
2022-12-11T09:50:48.895Z,76.68
2022-12-11T09:55:56.096Z,76.94
2022-12-11T10:01:00.808Z,76.30
2022-12-11T10:06:13.034Z,77.37
2022-12-11T10:11:35.819Z,77.28
2022-12-11T10:16:40.244Z,76.79
2022-12-11T10:21:44.129Z,76.56
2022-12-11T10:26:46.377Z,76.46
2022-12-11T10:31:54.612Z,75.24
2022-12-11T10:37:00.398Z,74.66
2022-12-11T10:42:04.820Z,74.78
2022-12-11T10:47:08.321Z,73.77
2022-12-11T10:52:13.991Z,72.79
2022-12-11T10:57:16.316Z,72.59
2022-12-11T11:02:24.166Z,72.49
2022-12-11T11:07:27.688Z,72.48
2022-12-11T11:12:29.119Z,72.04
2022-12-11T11:17:35.123Z,70.97
2022-12-11T11:22:42.455Z,72.59
2022-12-11T11:27:46.835Z,73.65
2022-12-11T11:32:47.693Z,74.05
2022-12-11T11:37:57.875Z,74.98
2022-12-11T11:43:14.124Z,74.81
2022-12-11T11:48:29.627Z,75.01
2022-12-11T11:53:37.421Z,75.50
2022-12-11T11:58:42.832Z,76.14
2022-12-11T12:03:43.708Z,76.38
2022-12-11T12:08:55.825Z,76.04
2022-12-11T12:14:22.749Z,76.38
2022-12-11T12:19:44.393Z,77.26
2022-12-11T12:24:57.824Z,77.79
2022-12-11T12:30:04.917Z,77.62
2022-12-11T12:35:17.466Z,76.45
2022-12-11T12:40:29.466Z,77.41
2022-12-11T12:45:37.329Z,74.43
2022-12-11T12:50:41.786Z,75.03
2022-12-11T12:55:45.809Z,74.02
2022-12-11T13:00:46.753Z,74.13
2022-12-11T13:05:59.150Z,74.21
2022-12-11T13:11:04.509Z,74.93
2022-12-11T13:16:24.682Z,74.33
2022-12-11T13:21:29.512Z,74.32
2022-12-11T13:26:34.353Z,75.16
2022-12-11T13:31:39.742Z,74.44
2022-12-11T13:36:42.114Z,74.84
2022-12-11T13:41:47.779Z,75.30
2022-12-11T13:46:49.755Z,75.17
2022-12-11T13:51:56.237Z,75.43
2022-12-11T13:57:01.628Z,75.61
2022-12-11T14:02:07.328Z,75.39
2022-12-11T14:07:10.048Z,76.03
2022-12-11T14:12:18.621Z,77.32
2022-12-11T14:17:26.868Z,78.29
2022-12-11T14:22:30.050Z,79.46
2022-12-11T14:27:32.261Z,79.64
2022-12-11T14:32:37.108Z,81.16
2022-12-11T14:37:38.376Z,81.79
2022-12-11T14:42:45.832Z,82.97
2022-12-11T14:47:46.799Z,82.94
2022-12-11T14:52:51.966Z,82.81
2022-12-11T14:57:57.619Z,81.03
2022-12-11T15:03:01.291Z,80.35
2022-12-11T15:08:04.213Z,79.55
2022-12-11T15:13:07.241Z,79.43
2022-12-11T15:18:15.231Z,78.66
2022-12-11T15:23:18.764Z,78.46
2022-12-11T15:28:33.263Z,77.80
2022-12-11T15:33:34.857Z,78.54
2022-12-11T15:38:40.761Z,77.89
2022-12-11T15:43:43.704Z,78.53
2022-12-11T15:48:44.579Z,79.11
2022-12-11T15:53:45.429Z,78.01
2022-12-11T15:58:49.379Z,78.71
2022-12-11T16:03:51.374Z,79.68
2022-12-11T16:08:52.183Z,80.66
2022-12-11T16:13:55.402Z,80.88
2022-12-11T16:18:56.231Z,81.01
2022-12-11T16:24:00.258Z,80.71
2022-12-11T16:29:02.821Z,81.69
2022-12-11T16:34:04.143Z,81.06
2022-12-11T16:39:05.100Z,80.98
2022-12-11T16:44:07.923Z,80.70
2022-12-11T16:49:08.801Z,81.29
2022-12-11T16:54:10.003Z,81.47
2022-12-11T16:59:12.949Z,80.89
2022-12-11T17:04:13.937Z,81.50
2022-12-11T17:09:14.852Z,82.02
2022-12-11T17:14:17.144Z,81.14
2022-12-11T17:19:18.677Z,81.51
2022-12-11T17:24:19.603Z,81.08
2022-12-11T17:29:22.059Z,81.57
2022-12-11T17:34:22.862Z,80.99
2022-12-11T17:39:24.800Z,81.08
2022-12-11T17:44:30.468Z,80.85
2022-12-11T17:49:31.382Z,81.30
2022-12-11T17:54:32.232Z,80.89
2022-12-11T17:59:34.441Z,80.53
2022-12-11T18:04:35.367Z,80.66
2022-12-11T18:09:36.164Z,80.79
2022-12-11T18:14:39.073Z,81.29
2022-12-11T18:19:45.741Z,81.48
2022-12-11T18:24:47.097Z,81.04
2022-12-11T18:29:49.257Z,81.49
2022-12-11T18:34:50.167Z,80.98
2022-12-11T18:39:51.117Z,81.02
2022-12-11T18:44:53.280Z,81.52
2022-12-11T18:49:54.503Z,81.73
2022-12-11T18:54:55.391Z,81.28
2022-12-11T19:00:02.351Z,81.77
2022-12-11T19:05:05.757Z,81.25
2022-12-11T19:10:08.551Z,81.89
2022-12-11T19:15:12.281Z,81.67
2022-12-11T19:20:40.472Z,81.15
2022-12-11T19:25:34.902Z,81.39
2022-12-11T19:30:37.535Z,81.75
2022-12-11T19:35:39.568Z,81.58
2022-12-11T19:40:41.611Z,81.98
2022-12-11T19:45:45.824Z,82.49
2022-12-11T19:50:46.969Z,82.90
2022-12-11T19:55:50.752Z,83.45
2022-12-11T20:00:53.052Z,83.24
2022-12-11T20:06:01.486Z,83.32
2022-12-11T20:11:06.055Z,83.75
2022-12-11T20:16:12.811Z,84.01
2022-12-11T20:21:15.586Z,83.67
2022-12-11T20:26:18.761Z,83.84
2022-12-11T20:31:23.277Z,83.78
2022-12-11T20:36:25.394Z,83.85
2022-12-11T20:41:27.568Z,83.92
2022-12-11T20:46:29.757Z,83.35
2022-12-11T20:51:32.579Z,83.51
2022-12-11T20:56:33.424Z,83.88
2022-12-11T21:01:35.914Z,83.59
2022-12-11T21:06:38.782Z,83.43
2022-12-11T21:11:39.727Z,83.98
2022-12-11T21:16:42.309Z,84.47
2022-12-11T21:21:45.202Z,84.65
2022-12-11T21:26:46.639Z,84.92
2022-12-11T21:31:49.181Z,85.04
2022-12-11T21:36:55.033Z,84.55
2022-12-11T21:42:00.905Z,84.93
2022-12-11T21:47:03.316Z,84.80
2022-12-11T21:52:04.696Z,85.04
2022-12-11T21:57:06.247Z,84.98
2022-12-11T22:02:08.887Z,85.09
2022-12-11T22:07:09.727Z,85.04
2022-12-11T22:12:12.551Z,84.80
2022-12-11T22:17:14.725Z,84.07
2022-12-11T22:22:16.046Z,84.35
2022-12-11T22:27:21.985Z,83.50
2022-12-11T22:32:26.563Z,83.77
2022-12-11T22:37:27.427Z,84.05
2022-12-11T22:42:28.516Z,84.42
2022-12-11T22:47:30.735Z,84.77
2022-12-11T22:52:31.683Z,85.05
2022-12-11T22:57:36.902Z,85.41
2022-12-11T23:02:39.577Z,85.03
2022-12-11T23:07:40.766Z,85.31
2022-12-11T23:12:41.820Z,85.63
2022-12-11T23:17:44.010Z,86.14
2022-12-11T23:22:44.809Z,86.15
2022-12-11T23:27:45.852Z,86.06
2022-12-11T23:32:48.005Z,85.86
2022-12-11T23:37:48.918Z,85.59
2022-12-11T23:42:49.709Z,85.85
2022-12-11T23:47:53.094Z,85.93
2022-12-11T23:52:53.908Z,85.83
2022-12-11T23:57:54.934Z,86.40
